Overview Statistics Trail Chart Weather Telemetry Raw packets
 

This is the latest recevied weather packets stored in our database for station/object OE3MHU-12. If no packets are shown the sender has not sent any weather packets the latest 10 day(s).

<< 5 6 7 8 9 10 11 >>
Time Temp. Humidity Pressure Rain* Wind** Luminosity Snow
1788275583 25° C 47% 1018.5 hPa 0 mm - - -
1788273783 25.56° C 44% 1018.6 hPa 0 mm - - -
1788271983 25° C 45% 1018.7 hPa 0 mm - - -
1788270368 25° C 45% 1018.7 hPa 0 mm - - -
1788270183 25° C 45% 1018.7 hPa 0 mm - - -
1788268383 25.56° C 44% 1018.8 hPa 0 mm - - -
1788262983 25° C 45% 1019.1 hPa 0 mm - - -
1788259414 24.44° C 46% 1019.1 hPa 0 mm - - -
1788259384 24.44° C 46% 1019.1 hPa 0 mm - - -
1788255815 23.89° C 52% 1019.2 hPa 0 mm - - -
1788255784 23.89° C 52% 1019.2 hPa 0 mm - - -
1788253984 24.44° C 50% 1019.2 hPa 0 mm - - -
1788252184 23.89° C 50% 1019.4 hPa 0 mm - - -
1788250384 23.33° C 53% 1019.3 hPa 0 mm - - -
1788248584 21.67° C 60% 1019.1 hPa 0 mm - - -
1788246784 20.56° C 64% 1019 hPa 0 mm - - -
1788244984 19.44° C 69% 1018.8 hPa 0 mm - - -
1788243184 16.67° C 77% 1018.9 hPa 0 mm - - -
1788241387 14.44° C 81% - 0 mm - - -
1788241384 14.44° C 81% 1018.8 hPa 0 mm - - -
1788239585 13.33° C 84% 1018.6 hPa 0 mm - - -
1788237785 11.67° C 86% 1018.4 hPa 0 mm - - -
1788235985 11.67° C 84% 1018.4 hPa 0 mm - - -
1788234186 12.22° C 84% 1018.4 hPa 0 mm - - -
1788232385 12.22° C 84% 1018.3 hPa 0 mm - - -

* Rain latest hour (hover to see other rain measurements)
** Current wind speed in m/s (hover to see current wind gust speed)